sensor_id;sensor_type;location;lat;lon;timestamp;P1;durP1;ratioP1;P2;durP2;ratioP2
6282;SDS011;3174;53.486;9.568;2023-08-07T00:00:05;3.77;;;1.60;;
6282;SDS011;3174;53.486;9.568;2023-08-07T00:02:35;2.00;;;1.50;;
6282;SDS011;3174;53.486;9.568;2023-08-07T00:05:04;2.23;;;1.47;;
6282;SDS011;3174;53.486;9.568;2023-08-07T00:07:33;3.30;;;1.50;;
6282;SDS011;3174;53.486;9.568;2023-08-07T00:10:01;2.70;;;1.40;;
6282;SDS011;3174;53.486;9.568;2023-08-07T00:12:29;3.20;;;1.30;;
6282;SDS011;3174;53.486;9.568;2023-08-07T00:14:59;1.83;;;1.23;;
6282;SDS011;3174;53.486;9.568;2023-08-07T00:17:27;2.23;;;1.20;;
6282;SDS011;3174;53.486;9.568;2023-08-07T00:19:55;4.60;;;1.60;;
6282;SDS011;3174;53.486;9.568;2023-08-07T00:22:23;1.90;;;1.23;;
6282;SDS011;3174;53.486;9.568;2023-08-07T00:24:52;1.47;;;1.00;;
6282;SDS011;3174;53.486;9.568;2023-08-07T00:27:20;3.80;;;1.40;;
6282;SDS011;3174;53.486;9.568;2023-08-07T00:29:48;1.80;;;1.50;;
6282;SDS011;3174;53.486;9.568;2023-08-07T00:32:18;3.17;;;1.40;;
6282;SDS011;3174;53.486;9.568;2023-08-07T00:34:46;4.00;;;1.53;;
6282;SDS011;3174;53.486;9.568;2023-08-07T00:37:14;1.77;;;1.40;;
6282;SDS011;3174;53.486;9.568;2023-08-07T00:39:42;3.40;;;1.17;;
6282;SDS011;3174;53.486;9.568;2023-08-07T00:42:10;1.50;;;1.10;;
6282;SDS011;3174;53.486;9.568;2023-08-07T00:44:38;4.33;;;1.30;;
6282;SDS011;3174;53.486;9.568;2023-08-07T00:47:06;1.63;;;1.33;;
6282;SDS011;3174;53.486;9.568;2023-08-07T00:49:35;2.97;;;1.47;;
6282;SDS011;3174;53.486;9.568;2023-08-07T00:52:04;1.63;;;1.27;;
6282;SDS011;3174;53.486;9.568;2023-08-07T00:54:32;1.57;;;1.23;;
6282;SDS011;3174;53.486;9.568;2023-08-07T00:57:03;1.53;;;1.20;;
6282;SDS011;3174;53.486;9.568;2023-08-07T00:59:37;1.67;;;1.23;;
6282;SDS011;3174;53.486;9.568;2023-08-07T01:02:06;1.90;;;1.30;;
6282;SDS011;3174;53.486;9.568;2023-08-07T01:04:35;3.07;;;1.23;;
6282;SDS011;3174;53.486;9.568;2023-08-07T01:07:03;2.10;;;1.20;;
6282;SDS011;3174;53.486;9.568;2023-08-07T01:09:32;2.07;;;1.30;;
6282;SDS011;3174;53.486;9.568;2023-08-07T01:12:02;3.53;;;1.50;;
6282;SDS011;3174;53.486;9.568;2023-08-07T01:14:36;3.10;;;1.30;;
6282;SDS011;3174;53.486;9.568;2023-08-07T01:17:06;2.53;;;1.23;;
6282;SDS011;3174;53.486;9.568;2023-08-07T01:19:38;4.23;;;1.57;;
6282;SDS011;3174;53.486;9.568;2023-08-07T01:22:08;1.73;;;1.30;;
6282;SDS011;3174;53.486;9.568;2023-08-07T01:24:37;2.03;;;1.20;;
6282;SDS011;3174;53.486;9.568;2023-08-07T01:27:10;3.33;;;1.33;;
6282;SDS011;3174;53.486;9.568;2023-08-07T01:29:44;4.43;;;1.43;;
6282;SDS011;3174;53.486;9.568;2023-08-07T01:32:17;1.77;;;1.20;;
6282;SDS011;3174;53.486;9.568;2023-08-07T01:34:49;6.37;;;1.33;;
6282;SDS011;3174;53.486;9.568;2023-08-07T01:37:19;1.93;;;1.33;;
6282;SDS011;3174;53.486;9.568;2023-08-07T01:39:48;2.23;;;1.20;;
6282;SDS011;3174;53.486;9.568;2023-08-07T01:42:16;2.90;;;1.33;;
6282;SDS011;3174;53.486;9.568;2023-08-07T01:44:44;2.77;;;1.33;;
6282;SDS011;3174;53.486;9.568;2023-08-07T01:47:12;2.30;;;1.40;;
6282;SDS011;3174;53.486;9.568;2023-08-07T01:49:40;1.90;;;1.33;;
6282;SDS011;3174;53.486;9.568;2023-08-07T01:52:09;2.67;;;1.20;;
6282;SDS011;3174;53.486;9.568;2023-08-07T01:54:39;2.47;;;1.10;;
6282;SDS011;3174;53.486;9.568;2023-08-07T01:57:07;3.60;;;1.27;;
6282;SDS011;3174;53.486;9.568;2023-08-07T01:59:35;3.10;;;1.40;;
6282;SDS011;3174;53.486;9.568;2023-08-07T02:02:03;2.30;;;1.00;;
6282;SDS011;3174;53.486;9.568;2023-08-07T02:04:31;1.73;;;1.30;;
6282;SDS011;3174;53.486;9.568;2023-08-07T02:06:59;1.87;;;1.37;;
6282;SDS011;3174;53.486;9.568;2023-08-07T02:09:27;1.70;;;1.27;;
6282;SDS011;3174;53.486;9.568;2023-08-07T02:11:56;2.03;;;1.20;;
6282;SDS011;3174;53.486;9.568;2023-08-07T02:14:24;2.37;;;1.27;;
6282;SDS011;3174;53.486;9.568;2023-08-07T02:16:52;1.97;;;1.27;;
6282;SDS011;3174;53.486;9.568;2023-08-07T02:19:20;1.43;;;1.27;;
6282;SDS011;3174;53.486;9.568;2023-08-07T02:21:48;2.67;;;1.10;;
6282;SDS011;3174;53.486;9.568;2023-08-07T02:24:16;2.20;;;1.00;;
6282;SDS011;3174;53.486;9.568;2023-08-07T02:26:46;1.53;;;1.20;;
6282;SDS011;3174;53.486;9.568;2023-08-07T02:29:15;3.80;;;1.20;;
6282;SDS011;3174;53.486;9.568;2023-08-07T02:31:43;2.33;;;1.20;;
6282;SDS011;3174;53.486;9.568;2023-08-07T02:34:11;3.70;;;1.10;;
6282;SDS011;3174;53.486;9.568;2023-08-07T02:36:39;2.40;;;1.00;;
6282;SDS011;3174;53.486;9.568;2023-08-07T02:39:07;2.53;;;1.33;;
6282;SDS011;3174;53.486;9.568;2023-08-07T02:41:35;3.43;;;1.10;;
6282;SDS011;3174;53.486;9.568;2023-08-07T02:44:03;3.90;;;1.30;;
6282;SDS011;3174;53.486;9.568;2023-08-07T02:46:33;2.23;;;0.97;;
6282;SDS011;3174;53.486;9.568;2023-08-07T02:49:02;1.83;;;1.00;;
6282;SDS011;3174;53.486;9.568;2023-08-07T02:51:32;1.73;;;1.20;;
6282;SDS011;3174;53.486;9.568;2023-08-07T02:54:00;2.50;;;1.23;;
6282;SDS011;3174;53.486;9.568;2023-08-07T02:56:28;2.43;;;1.10;;
6282;SDS011;3174;53.486;9.568;2023-08-07T02:58:56;1.63;;;1.10;;
6282;SDS011;3174;53.486;9.568;2023-08-07T03:01:24;1.33;;;1.10;;
6282;SDS011;3174;53.486;9.568;2023-08-07T03:03:55;1.83;;;1.20;;
6282;SDS011;3174;53.486;9.568;2023-08-07T03:06:23;1.63;;;1.20;;
6282;SDS011;3174;53.486;9.568;2023-08-07T03:08:51;2.00;;;1.30;;
6282;SDS011;3174;53.486;9.568;2023-08-07T03:11:20;1.40;;;1.20;;
6282;SDS011;3174;53.486;9.568;2023-08-07T03:13:48;2.10;;;1.17;;
6282;SDS011;3174;53.486;9.568;2023-08-07T03:16:16;2.37;;;1.07;;
6282;SDS011;3174;53.486;9.568;2023-08-07T03:18:44;2.80;;;1.20;;
6282;SDS011;3174;53.486;9.568;2023-08-07T03:21:14;1.70;;;1.17;;
6282;SDS011;3174;53.486;9.568;2023-08-07T03:23:42;3.63;;;1.27;;
6282;SDS011;3174;53.486;9.568;2023-08-07T03:26:10;2.83;;;1.10;;
6282;SDS011;3174;53.486;9.568;2023-08-07T03:28:42;2.20;;;1.20;;
6282;SDS011;3174;53.486;9.568;2023-08-07T03:31:12;2.50;;;1.03;;
6282;SDS011;3174;53.486;9.568;2023-08-07T03:33:40;2.47;;;1.37;;
6282;SDS011;3174;53.486;9.568;2023-08-07T03:36:08;1.50;;;1.30;;
6282;SDS011;3174;53.486;9.568;2023-08-07T03:38:38;1.70;;;1.30;;
6282;SDS011;3174;53.486;9.568;2023-08-07T03:41:06;1.90;;;1.30;;
6282;SDS011;3174;53.486;9.568;2023-08-07T03:43:34;2.40;;;1.40;;
6282;SDS011;3174;53.486;9.568;2023-08-07T03:46:02;1.37;;;1.00;;
6282;SDS011;3174;53.486;9.568;2023-08-07T03:48:30;2.27;;;1.20;;
6282;SDS011;3174;53.486;9.568;2023-08-07T03:51:04;1.53;;;1.10;;
6282;SDS011;3174;53.486;9.568;2023-08-07T03:53:34;2.60;;;1.40;;
6282;SDS011;3174;53.486;9.568;2023-08-07T03:56:04;1.70;;;1.10;;
6282;SDS011;3174;53.486;9.568;2023-08-07T03:58:32;1.90;;;1.20;;
6282;SDS011;3174;53.486;9.568;2023-08-07T04:01:00;3.27;;;1.73;;
6282;SDS011;3174;53.486;9.568;2023-08-07T04:03:28;2.17;;;1.10;;
6282;SDS011;3174;53.486;9.568;2023-08-07T04:05:56;3.80;;;1.30;;
6282;SDS011;3174;53.486;9.568;2023-08-07T04:08:24;3.97;;;1.57;;
6282;SDS011;3174;53.486;9.568;2023-08-07T04:10:58;2.60;;;1.20;;
6282;SDS011;3174;53.486;9.568;2023-08-07T04:13:28;1.43;;;1.10;;
6282;SDS011;3174;53.486;9.568;2023-08-07T04:15:57;2.97;;;1.30;;
6282;SDS011;3174;53.486;9.568;2023-08-07T04:18:27;2.80;;;1.30;;
6282;SDS011;3174;53.486;9.568;2023-08-07T04:20:55;2.70;;;1.40;;
6282;SDS011;3174;53.486;9.568;2023-08-07T04:23:24;1.20;;;1.10;;
6282;SDS011;3174;53.486;9.568;2023-08-07T04:25:52;3.53;;;1.70;;
6282;SDS011;3174;53.486;9.568;2023-08-07T04:28:21;2.13;;;1.50;;
6282;SDS011;3174;53.486;9.568;2023-08-07T04:30:50;1.53;;;1.10;;
6282;SDS011;3174;53.486;9.568;2023-08-07T04:33:19;1.80;;;1.13;;
6282;SDS011;3174;53.486;9.568;2023-08-07T04:35:47;1.30;;;1.20;;
6282;SDS011;3174;53.486;9.568;2023-08-07T04:38:16;1.33;;;1.23;;
6282;SDS011;3174;53.486;9.568;2023-08-07T04:40:44;5.37;;;1.40;;
6282;SDS011;3174;53.486;9.568;2023-08-07T04:43:13;1.70;;;1.57;;
6282;SDS011;3174;53.486;9.568;2023-08-07T04:45:41;2.50;;;1.20;;
6282;SDS011;3174;53.486;9.568;2023-08-07T04:48:13;2.47;;;1.67;;
6282;SDS011;3174;53.486;9.568;2023-08-07T04:50:41;4.23;;;1.70;;
6282;SDS011;3174;53.486;9.568;2023-08-07T04:53:09;2.73;;;1.40;;
6282;SDS011;3174;53.486;9.568;2023-08-07T04:55:38;2.93;;;1.10;;
6282;SDS011;3174;53.486;9.568;2023-08-07T04:58:06;3.87;;;1.30;;
6282;SDS011;3174;53.486;9.568;2023-08-07T05:00:35;3.70;;;1.47;;
6282;SDS011;3174;53.486;9.568;2023-08-07T05:03:03;1.80;;;1.40;;
6282;SDS011;3174;53.486;9.568;2023-08-07T05:05:33;3.47;;;1.67;;
6282;SDS011;3174;53.486;9.568;2023-08-07T05:08:01;11.13;;;1.77;;
6282;SDS011;3174;53.486;9.568;2023-08-07T05:10:29;4.00;;;1.40;;
6282;SDS011;3174;53.486;9.568;2023-08-07T05:12:57;3.07;;;1.43;;
6282;SDS011;3174;53.486;9.568;2023-08-07T05:15:25;3.53;;;1.50;;
6282;SDS011;3174;53.486;9.568;2023-08-07T05:17:54;5.97;;;1.67;;
6282;SDS011;3174;53.486;9.568;2023-08-07T05:20:23;8.00;;;1.63;;
6282;SDS011;3174;53.486;9.568;2023-08-07T05:22:52;3.90;;;1.63;;
6282;SDS011;3174;53.486;9.568;2023-08-07T05:25:20;1.80;;;1.17;;
6282;SDS011;3174;53.486;9.568;2023-08-07T05:27:48;3.50;;;1.67;;
6282;SDS011;3174;53.486;9.568;2023-08-07T05:30:16;7.17;;;1.57;;
6282;SDS011;3174;53.486;9.568;2023-08-07T05:32:45;6.17;;;1.87;;
6282;SDS011;3174;53.486;9.568;2023-08-07T05:35:13;3.57;;;1.60;;
6282;SDS011;3174;53.486;9.568;2023-08-07T05:37:41;4.73;;;1.60;;
6282;SDS011;3174;53.486;9.568;2023-08-07T05:40:10;4.70;;;1.40;;
6282;SDS011;3174;53.486;9.568;2023-08-07T05:42:39;4.20;;;1.50;;
6282;SDS011;3174;53.486;9.568;2023-08-07T05:45:08;7.60;;;2.13;;
6282;SDS011;3174;53.486;9.568;2023-08-07T05:47:37;4.07;;;1.60;;
6282;SDS011;3174;53.486;9.568;2023-08-07T05:50:06;4.63;;;1.67;;
6282;SDS011;3174;53.486;9.568;2023-08-07T05:52:34;5.47;;;1.63;;
6282;SDS011;3174;53.486;9.568;2023-08-07T05:55:02;4.13;;;1.50;;
6282;SDS011;3174;53.486;9.568;2023-08-07T05:57:34;3.53;;;1.57;;
6282;SDS011;3174;53.486;9.568;2023-08-07T06:00:03;5.77;;;1.90;;
6282;SDS011;3174;53.486;9.568;2023-08-07T06:02:31;5.17;;;1.77;;
6282;SDS011;3174;53.486;9.568;2023-08-07T06:04:59;3.37;;;1.80;;
6282;SDS011;3174;53.486;9.568;2023-08-07T06:07:27;5.20;;;1.90;;
6282;SDS011;3174;53.486;9.568;2023-08-07T06:09:55;9.23;;;1.77;;
6282;SDS011;3174;53.486;9.568;2023-08-07T06:12:24;4.00;;;1.80;;
6282;SDS011;3174;53.486;9.568;2023-08-07T06:14:53;3.90;;;1.67;;
6282;SDS011;3174;53.486;9.568;2023-08-07T06:17:21;6.43;;;1.73;;
6282;SDS011;3174;53.486;9.568;2023-08-07T06:19:49;1.90;;;1.30;;
6282;SDS011;3174;53.486;9.568;2023-08-07T06:22:17;6.17;;;1.53;;
6282;SDS011;3174;53.486;9.568;2023-08-07T06:24:45;9.50;;;1.63;;
6282;SDS011;3174;53.486;9.568;2023-08-07T06:27:13;2.70;;;1.60;;
6282;SDS011;3174;53.486;9.568;2023-08-07T06:29:41;6.47;;;2.27;;
6282;SDS011;3174;53.486;9.568;2023-08-07T06:32:10;5.97;;;1.70;;
6282;SDS011;3174;53.486;9.568;2023-08-07T06:34:38;3.13;;;1.60;;
6282;SDS011;3174;53.486;9.568;2023-08-07T06:37:06;5.77;;;1.73;;
6282;SDS011;3174;53.486;9.568;2023-08-07T06:39:34;3.97;;;1.57;;
6282;SDS011;3174;53.486;9.568;2023-08-07T06:42:02;4.97;;;1.50;;
6282;SDS011;3174;53.486;9.568;2023-08-07T06:44:31;8.27;;;1.87;;
6282;SDS011;3174;53.486;9.568;2023-08-07T06:46:59;5.00;;;1.80;;
6282;SDS011;3174;53.486;9.568;2023-08-07T06:49:28;8.77;;;1.83;;
6282;SDS011;3174;53.486;9.568;2023-08-07T06:51:58;5.07;;;2.03;;
6282;SDS011;3174;53.486;9.568;2023-08-07T06:54:26;8.50;;;2.07;;
6282;SDS011;3174;53.486;9.568;2023-08-07T06:56:54;7.00;;;1.93;;
6282;SDS011;3174;53.486;9.568;2023-08-07T06:59:22;8.20;;;2.30;;
6282;SDS011;3174;53.486;9.568;2023-08-07T07:01:51;5.27;;;2.03;;
6282;SDS011;3174;53.486;9.568;2023-08-07T07:04:20;7.37;;;2.40;;
6282;SDS011;3174;53.486;9.568;2023-08-07T07:06:49;4.70;;;1.83;;
6282;SDS011;3174;53.486;9.568;2023-08-07T07:09:19;7.97;;;2.23;;
6282;SDS011;3174;53.486;9.568;2023-08-07T07:11:47;8.40;;;2.20;;
6282;SDS011;3174;53.486;9.568;2023-08-07T07:14:15;5.13;;;1.67;;
6282;SDS011;3174;53.486;9.568;2023-08-07T07:16:43;6.33;;;1.90;;
6282;SDS011;3174;53.486;9.568;2023-08-07T07:19:11;13.80;;;2.63;;
6282;SDS011;3174;53.486;9.568;2023-08-07T07:21:39;8.30;;;2.40;;
6282;SDS011;3174;53.486;9.568;2023-08-07T07:24:09;7.03;;;2.47;;
6282;SDS011;3174;53.486;9.568;2023-08-07T07:26:37;8.07;;;2.60;;
6282;SDS011;3174;53.486;9.568;2023-08-07T07:29:05;6.47;;;2.63;;
6282;SDS011;3174;53.486;9.568;2023-08-07T07:31:33;9.87;;;2.20;;
6282;SDS011;3174;53.486;9.568;2023-08-07T07:34:01;6.10;;;2.20;;
6282;SDS011;3174;53.486;9.568;2023-08-07T07:36:29;11.00;;;2.57;;
6282;SDS011;3174;53.486;9.568;2023-08-07T07:38:57;6.23;;;1.90;;
6282;SDS011;3174;53.486;9.568;2023-08-07T07:41:26;6.87;;;2.07;;
6282;SDS011;3174;53.486;9.568;2023-08-07T07:43:55;4.53;;;1.73;;
6282;SDS011;3174;53.486;9.568;2023-08-07T07:46:23;5.40;;;1.70;;
6282;SDS011;3174;53.486;9.568;2023-08-07T07:48:51;7.90;;;2.17;;
6282;SDS011;3174;53.486;9.568;2023-08-07T07:51:19;9.30;;;2.20;;
6282;SDS011;3174;53.486;9.568;2023-08-07T07:53:47;6.53;;;2.00;;
6282;SDS011;3174;53.486;9.568;2023-08-07T07:56:37;6.10;;;1.97;;
6282;SDS011;3174;53.486;9.568;2023-08-07T07:59:05;6.93;;;2.30;;
6282;SDS011;3174;53.486;9.568;2023-08-07T08:01:34;6.47;;;2.00;;
6282;SDS011;3174;53.486;9.568;2023-08-07T08:04:03;9.47;;;2.27;;
6282;SDS011;3174;53.486;9.568;2023-08-07T08:06:32;7.27;;;2.20;;
6282;SDS011;3174;53.486;9.568;2023-08-07T08:09:00;5.13;;;2.30;;
6282;SDS011;3174;53.486;9.568;2023-08-07T08:11:30;5.00;;;2.03;;
6282;SDS011;3174;53.486;9.568;2023-08-07T08:14:00;8.13;;;2.17;;
6282;SDS011;3174;53.486;9.568;2023-08-07T08:16:28;10.30;;;2.93;;
6282;SDS011;3174;53.486;9.568;2023-08-07T08:18:56;6.07;;;2.20;;
6282;SDS011;3174;53.486;9.568;2023-08-07T08:21:24;8.43;;;2.60;;
6282;SDS011;3174;53.486;9.568;2023-08-07T08:23:52;9.63;;;2.27;;
6282;SDS011;3174;53.486;9.568;2023-08-07T08:26:20;5.17;;;1.83;;
6282;SDS011;3174;53.486;9.568;2023-08-07T08:28:48;6.43;;;1.87;;
6282;SDS011;3174;53.486;9.568;2023-08-07T08:31:18;5.83;;;2.57;;
6282;SDS011;3174;53.486;9.568;2023-08-07T08:33:47;6.17;;;2.17;;
6282;SDS011;3174;53.486;9.568;2023-08-07T08:36:15;7.07;;;1.87;;
6282;SDS011;3174;53.486;9.568;2023-08-07T08:38:43;5.97;;;2.07;;
6282;SDS011;3174;53.486;9.568;2023-08-07T08:41:14;5.90;;;2.03;;
6282;SDS011;3174;53.486;9.568;2023-08-07T08:43:44;8.30;;;1.83;;
6282;SDS011;3174;53.486;9.568;2023-08-07T08:46:14;4.40;;;1.60;;
6282;SDS011;3174;53.486;9.568;2023-08-07T08:48:44;4.60;;;1.80;;
6282;SDS011;3174;53.486;9.568;2023-08-07T08:51:16;8.33;;;1.83;;
6282;SDS011;3174;53.486;9.568;2023-08-07T08:53:45;6.40;;;1.83;;
6282;SDS011;3174;53.486;9.568;2023-08-07T08:56:15;7.10;;;2.10;;
6282;SDS011;3174;53.486;9.568;2023-08-07T08:58:43;3.53;;;1.50;;
6282;SDS011;3174;53.486;9.568;2023-08-07T09:01:11;4.90;;;1.90;;
6282;SDS011;3174;53.486;9.568;2023-08-07T09:03:40;5.93;;;2.30;;
6282;SDS011;3174;53.486;9.568;2023-08-07T09:06:09;3.73;;;2.00;;
6282;SDS011;3174;53.486;9.568;2023-08-07T09:08:37;7.10;;;2.07;;
6282;SDS011;3174;53.486;9.568;2023-08-07T09:11:05;3.23;;;1.40;;
6282;SDS011;3174;53.486;9.568;2023-08-07T09:13:35;9.00;;;2.63;;
6282;SDS011;3174;53.486;9.568;2023-08-07T09:16:04;7.83;;;2.57;;
6282;SDS011;3174;53.486;9.568;2023-08-07T09:18:36;9.43;;;2.13;;
6282;SDS011;3174;53.486;9.568;2023-08-07T09:21:04;4.53;;;1.87;;
6282;SDS011;3174;53.486;9.568;2023-08-07T09:23:33;7.17;;;2.00;;
6282;SDS011;3174;53.486;9.568;2023-08-07T09:26:02;5.43;;;1.73;;
6282;SDS011;3174;53.486;9.568;2023-08-07T09:28:31;9.10;;;2.10;;
6282;SDS011;3174;53.486;9.568;2023-08-07T09:31:00;12.60;;;2.37;;
6282;SDS011;3174;53.486;9.568;2023-08-07T09:33:29;6.30;;;2.13;;
6282;SDS011;3174;53.486;9.568;2023-08-07T09:35:57;9.80;;;2.63;;
6282;SDS011;3174;53.486;9.568;2023-08-07T09:38:27;7.70;;;1.63;;
6282;SDS011;3174;53.486;9.568;2023-08-07T09:40:58;5.43;;;1.70;;
6282;SDS011;3174;53.486;9.568;2023-08-07T09:43:26;10.90;;;2.30;;
6282;SDS011;3174;53.486;9.568;2023-08-07T09:46:01;5.97;;;1.63;;
6282;SDS011;3174;53.486;9.568;2023-08-07T09:48:31;6.97;;;2.00;;
6282;SDS011;3174;53.486;9.568;2023-08-07T09:51:00;6.33;;;1.83;;
6282;SDS011;3174;53.486;9.568;2023-08-07T09:53:30;3.93;;;2.37;;
6282;SDS011;3174;53.486;9.568;2023-08-07T09:56:00;6.13;;;1.30;;
6282;SDS011;3174;53.486;9.568;2023-08-07T09:58:28;11.80;;;1.93;;
6282;SDS011;3174;53.486;9.568;2023-08-07T10:00:58;5.50;;;1.50;;
6282;SDS011;3174;53.486;9.568;2023-08-07T10:03:27;8.00;;;1.90;;
6282;SDS011;3174;53.486;9.568;2023-08-07T10:05:55;6.77;;;2.40;;
6282;SDS011;3174;53.486;9.568;2023-08-07T10:08:23;9.63;;;2.40;;
6282;SDS011;3174;53.486;9.568;2023-08-07T10:10:51;3.63;;;1.83;;
6282;SDS011;3174;53.486;9.568;2023-08-07T10:13:21;6.93;;;2.00;;
6282;SDS011;3174;53.486;9.568;2023-08-07T10:16:04;4.63;;;1.63;;
6282;SDS011;3174;53.486;9.568;2023-08-07T10:18:32;5.80;;;1.60;;
6282;SDS011;3174;53.486;9.568;2023-08-07T10:21:01;7.63;;;1.70;;
6282;SDS011;3174;53.486;9.568;2023-08-07T10:23:32;6.20;;;1.70;;
6282;SDS011;3174;53.486;9.568;2023-08-07T10:26:02;5.03;;;1.90;;
6282;SDS011;3174;53.486;9.568;2023-08-07T10:28:34;7.10;;;2.03;;
6282;SDS011;3174;53.486;9.568;2023-08-07T10:31:04;7.77;;;1.93;;
6282;SDS011;3174;53.486;9.568;2023-08-07T10:33:33;5.70;;;1.70;;
6282;SDS011;3174;53.486;9.568;2023-08-07T10:36:02;7.57;;;1.80;;
6282;SDS011;3174;53.486;9.568;2023-08-07T10:38:36;6.10;;;1.80;;
6282;SDS011;3174;53.486;9.568;2023-08-07T10:41:06;6.43;;;1.80;;
6282;SDS011;3174;53.486;9.568;2023-08-07T10:43:39;6.27;;;1.70;;
6282;SDS011;3174;53.486;9.568;2023-08-07T10:46:08;3.97;;;1.90;;
6282;SDS011;3174;53.486;9.568;2023-08-07T10:48:39;4.73;;;1.87;;
6282;SDS011;3174;53.486;9.568;2023-08-07T10:51:09;5.90;;;2.00;;
6282;SDS011;3174;53.486;9.568;2023-08-07T10:53:40;5.90;;;1.70;;
6282;SDS011;3174;53.486;9.568;2023-08-07T10:56:10;7.23;;;1.50;;
6282;SDS011;3174;53.486;9.568;2023-08-07T10:58:40;14.73;;;2.10;;
6282;SDS011;3174;53.486;9.568;2023-08-07T11:01:15;6.87;;;1.77;;
6282;SDS011;3174;53.486;9.568;2023-08-07T11:03:45;5.57;;;1.53;;
6282;SDS011;3174;53.486;9.568;2023-08-07T11:06:13;7.47;;;2.20;;
6282;SDS011;3174;53.486;9.568;2023-08-07T11:08:41;6.73;;;1.63;;
6282;SDS011;3174;53.486;9.568;2023-08-07T11:11:10;4.47;;;1.30;;
6282;SDS011;3174;53.486;9.568;2023-08-07T11:13:38;6.30;;;1.60;;
6282;SDS011;3174;53.486;9.568;2023-08-07T11:16:07;6.07;;;1.70;;
6282;SDS011;3174;53.486;9.568;2023-08-07T11:18:35;5.93;;;1.83;;
6282;SDS011;3174;53.486;9.568;2023-08-07T11:21:07;4.63;;;1.63;;
6282;SDS011;3174;53.486;9.568;2023-08-07T11:23:36;3.47;;;1.47;;
6282;SDS011;3174;53.486;9.568;2023-08-07T11:26:05;4.63;;;1.47;;
6282;SDS011;3174;53.486;9.568;2023-08-07T11:28:33;5.67;;;1.37;;
6282;SDS011;3174;53.486;9.568;2023-08-07T11:31:01;3.53;;;1.40;;
6282;SDS011;3174;53.486;9.568;2023-08-07T11:33:30;10.07;;;1.73;;
6282;SDS011;3174;53.486;9.568;2023-08-07T11:35:58;4.13;;;1.33;;
6282;SDS011;3174;53.486;9.568;2023-08-07T11:38:30;5.33;;;1.77;;
6282;SDS011;3174;53.486;9.568;2023-08-07T11:41:00;4.50;;;1.40;;
6282;SDS011;3174;53.486;9.568;2023-08-07T11:43:28;3.87;;;1.67;;
6282;SDS011;3174;53.486;9.568;2023-08-07T11:45:57;4.73;;;1.60;;
6282;SDS011;3174;53.486;9.568;2023-08-07T11:48:27;9.77;;;1.73;;
6282;SDS011;3174;53.486;9.568;2023-08-07T11:50:57;4.20;;;1.57;;
6282;SDS011;3174;53.486;9.568;2023-08-07T11:53:26;5.60;;;1.77;;
6282;SDS011;3174;53.486;9.568;2023-08-07T11:55:57;7.10;;;1.60;;
6282;SDS011;3174;53.486;9.568;2023-08-07T11:58:26;5.40;;;1.40;;
6282;SDS011;3174;53.486;9.568;2023-08-07T12:00:54;8.20;;;2.00;;
6282;SDS011;3174;53.486;9.568;2023-08-07T12:03:23;3.90;;;1.53;;
6282;SDS011;3174;53.486;9.568;2023-08-07T12:05:57;4.13;;;1.40;;
6282;SDS011;3174;53.486;9.568;2023-08-07T12:08:30;7.83;;;2.00;;
6282;SDS011;3174;53.486;9.568;2023-08-07T12:11:00;4.60;;;1.60;;
6282;SDS011;3174;53.486;9.568;2023-08-07T12:13:28;6.67;;;1.50;;
6282;SDS011;3174;53.486;9.568;2023-08-07T12:15:58;5.47;;;1.70;;
6282;SDS011;3174;53.486;9.568;2023-08-07T12:18:26;6.20;;;1.50;;
6282;SDS011;3174;53.486;9.568;2023-08-07T12:20:59;8.33;;;1.87;;
6282;SDS011;3174;53.486;9.568;2023-08-07T12:23:28;7.53;;;1.93;;
6282;SDS011;3174;53.486;9.568;2023-08-07T12:25:56;4.40;;;1.80;;
6282;SDS011;3174;53.486;9.568;2023-08-07T12:28:24;3.00;;;1.83;;
6282;SDS011;3174;53.486;9.568;2023-08-07T12:30:52;7.70;;;1.70;;
6282;SDS011;3174;53.486;9.568;2023-08-07T12:33:20;4.77;;;1.73;;
6282;SDS011;3174;53.486;9.568;2023-08-07T12:35:49;6.63;;;1.80;;
6282;SDS011;3174;53.486;9.568;2023-08-07T12:38:19;7.00;;;1.77;;
6282;SDS011;3174;53.486;9.568;2023-08-07T12:40:47;8.60;;;1.90;;
6282;SDS011;3174;53.486;9.568;2023-08-07T12:43:15;5.67;;;1.73;;
6282;SDS011;3174;53.486;9.568;2023-08-07T12:45:43;3.63;;;1.40;;
6282;SDS011;3174;53.486;9.568;2023-08-07T12:48:13;4.63;;;1.80;;
6282;SDS011;3174;53.486;9.568;2023-08-07T12:50:42;5.33;;;1.70;;
6282;SDS011;3174;53.486;9.568;2023-08-07T12:53:10;4.00;;;1.60;;
6282;SDS011;3174;53.486;9.568;2023-08-07T12:55:39;3.30;;;1.50;;
6282;SDS011;3174;53.486;9.568;2023-08-07T12:58:07;3.10;;;1.33;;
6282;SDS011;3174;53.486;9.568;2023-08-07T13:00:35;3.30;;;1.60;;
6282;SDS011;3174;53.486;9.568;2023-08-07T13:03:03;5.13;;;1.70;;
6282;SDS011;3174;53.486;9.568;2023-08-07T13:05:31;3.63;;;1.40;;
6282;SDS011;3174;53.486;9.568;2023-08-07T13:08:03;8.17;;;1.90;;
6282;SDS011;3174;53.486;9.568;2023-08-07T13:10:31;3.93;;;1.53;;
6282;SDS011;3174;53.486;9.568;2023-08-07T13:13:00;5.13;;;1.93;;
6282;SDS011;3174;53.486;9.568;2023-08-07T13:15:30;5.83;;;1.60;;
6282;SDS011;3174;53.486;9.568;2023-08-07T13:17:58;4.17;;;1.80;;
6282;SDS011;3174;53.486;9.568;2023-08-07T13:20:27;9.70;;;1.87;;
6282;SDS011;3174;53.486;9.568;2023-08-07T13:22:59;4.50;;;1.90;;
6282;SDS011;3174;53.486;9.568;2023-08-07T13:25:28;6.30;;;2.53;;
6282;SDS011;3174;53.486;9.568;2023-08-07T13:27:56;4.30;;;1.77;;
6282;SDS011;3174;53.486;9.568;2023-08-07T13:30:25;7.33;;;2.10;;
6282;SDS011;3174;53.486;9.568;2023-08-07T13:33:02;7.20;;;1.93;;
6282;SDS011;3174;53.486;9.568;2023-08-07T13:35:30;5.20;;;1.87;;
6282;SDS011;3174;53.486;9.568;2023-08-07T13:37:59;7.70;;;2.30;;
6282;SDS011;3174;53.486;9.568;2023-08-07T13:40:31;5.43;;;1.70;;
6282;SDS011;3174;53.486;9.568;2023-08-07T13:42:59;4.73;;;2.03;;
6282;SDS011;3174;53.486;9.568;2023-08-07T13:45:36;9.07;;;1.97;;
6282;SDS011;3174;53.486;9.568;2023-08-07T13:48:04;6.70;;;1.60;;
6282;SDS011;3174;53.486;9.568;2023-08-07T13:50:33;8.03;;;2.20;;
6282;SDS011;3174;53.486;9.568;2023-08-07T13:53:03;4.47;;;1.77;;
6282;SDS011;3174;53.486;9.568;2023-08-07T13:55:40;7.93;;;2.37;;
6282;SDS011;3174;53.486;9.568;2023-08-07T13:58:08;7.10;;;1.90;;
6282;SDS011;3174;53.486;9.568;2023-08-07T14:00:38;5.13;;;2.00;;
6282;SDS011;3174;53.486;9.568;2023-08-07T14:03:07;3.53;;;1.80;;
6282;SDS011;3174;53.486;9.568;2023-08-07T14:05:36;8.83;;;3.10;;
6282;SDS011;3174;53.486;9.568;2023-08-07T14:08:05;3.67;;;1.70;;
6282;SDS011;3174;53.486;9.568;2023-08-07T14:10:33;5.00;;;1.80;;
6282;SDS011;3174;53.486;9.568;2023-08-07T14:13:03;4.67;;;1.73;;
6282;SDS011;3174;53.486;9.568;2023-08-07T14:15:30;5.57;;;1.93;;
6282;SDS011;3174;53.486;9.568;2023-08-07T14:18:00;4.03;;;1.90;;
6282;SDS011;3174;53.486;9.568;2023-08-07T14:20:28;4.97;;;1.70;;
6282;SDS011;3174;53.486;9.568;2023-08-07T14:22:56;3.10;;;1.57;;
6282;SDS011;3174;53.486;9.568;2023-08-07T14:25:44;6.10;;;1.80;;
6282;SDS011;3174;53.486;9.568;2023-08-07T14:28:15;4.67;;;1.70;;
6282;SDS011;3174;53.486;9.568;2023-08-07T14:30:43;6.10;;;1.60;;
6282;SDS011;3174;53.486;9.568;2023-08-07T14:33:12;6.47;;;2.20;;
6282;SDS011;3174;53.486;9.568;2023-08-07T14:35:40;4.97;;;2.00;;
6282;SDS011;3174;53.486;9.568;2023-08-07T14:38:08;9.50;;;1.70;;
6282;SDS011;3174;53.486;9.568;2023-08-07T14:40:36;6.00;;;1.73;;
6282;SDS011;3174;53.486;9.568;2023-08-07T14:43:07;4.30;;;1.67;;
6282;SDS011;3174;53.486;9.568;2023-08-07T14:45:36;6.43;;;1.70;;
6282;SDS011;3174;53.486;9.568;2023-08-07T14:48:04;4.37;;;1.80;;
6282;SDS011;3174;53.486;9.568;2023-08-07T14:50:35;3.33;;;1.53;;
6282;SDS011;3174;53.486;9.568;2023-08-07T14:53:03;5.43;;;1.57;;
6282;SDS011;3174;53.486;9.568;2023-08-07T14:55:31;4.70;;;1.60;;
6282;SDS011;3174;53.486;9.568;2023-08-07T14:57:59;7.20;;;2.00;;
6282;SDS011;3174;53.486;9.568;2023-08-07T15:00:27;4.30;;;1.70;;
6282;SDS011;3174;53.486;9.568;2023-08-07T15:02:56;4.13;;;1.70;;
6282;SDS011;3174;53.486;9.568;2023-08-07T15:05:24;8.03;;;1.80;;
6282;SDS011;3174;53.486;9.568;2023-08-07T15:07:53;5.00;;;1.37;;
6282;SDS011;3174;53.486;9.568;2023-08-07T15:10:21;4.97;;;1.53;;
6282;SDS011;3174;53.486;9.568;2023-08-07T15:12:49;6.27;;;1.70;;
6282;SDS011;3174;53.486;9.568;2023-08-07T15:15:17;5.60;;;1.73;;
6282;SDS011;3174;53.486;9.568;2023-08-07T15:17:45;9.60;;;3.40;;
6282;SDS011;3174;53.486;9.568;2023-08-07T15:20:13;5.90;;;1.80;;
6282;SDS011;3174;53.486;9.568;2023-08-07T15:22:42;4.67;;;1.50;;
6282;SDS011;3174;53.486;9.568;2023-08-07T15:25:11;5.53;;;1.50;;